Time;durP1;ratioP1;P1;durP2;ratioP2;P2;SDS_P1;SDS_P2;PMS_P1;PMS_P2;Temp;Humidity;BMP_temperature;BMP_pressure;BME280_temperature;BME280_humidity;BME280_pressure;Samples;Min_cycle;Max_cycle;Signal;HPM_P1;HPM_P2
2021/05/09 00:01:35;;;;;;;5.93;3.40;;;14.00;99.90;;;;;;5062108;28;20894;-81
2021/05/09 00:04:06;;;;;;;3.70;3.30;;;14.00;99.90;;;;;;5043959;28;20442;-81
2021/05/09 00:06:32;;;;;;;3.40;3.10;;;14.00;99.90;;;;;;5075249;28;20513;-81
2021/05/09 00:09:00;;;;;;;3.60;3.30;;;14.00;99.90;;;;;;5070796;28;20443;-81
2021/05/09 00:11:29;;;;;;;3.00;2.80;;;13.90;99.90;;;;;;5043575;28;20451;-82
2021/05/09 00:13:59;;;;;;;4.20;3.20;;;14.00;99.90;;;;;;5063181;28;20460;-80
2021/05/09 00:16:25;;;;;;;4.80;3.50;;;13.90;99.90;;;;;;5069113;28;20424;-81
2021/05/09 00:18:53;;;;;;;3.47;3.17;;;14.00;99.90;;;;;;5070986;28;20439;-82
2021/05/09 00:21:24;;;;;;;3.57;3.23;;;14.00;99.90;;;;;;5056618;28;20411;-81
2021/05/09 00:23:49;;;;;;;3.90;3.27;;;13.90;99.90;;;;;;5064802;28;20422;-81
2021/05/09 00:26:17;;;;;;;3.67;3.30;;;13.90;99.90;;;;;;5074907;28;20436;-81
2021/05/09 00:28:43;;;;;;;3.20;2.90;;;13.90;99.90;;;;;;5058662;28;20429;-81
2021/05/09 00:31:12;;;;;;;3.40;3.03;;;13.80;99.90;;;;;;5070393;28;20953;-81
2021/05/09 00:33:38;;;;;;;3.60;3.30;;;13.80;99.90;;;;;;5074544;28;20565;-81
2021/05/09 00:36:14;;;;;;;4.80;3.70;;;13.80;99.90;;;;;;5075309;28;20437;-81
2021/05/09 00:38:42;;;;;;;6.40;3.60;;;13.80;99.90;;;;;;5057613;28;20427;-81
2021/05/09 00:41:08;;;;;;;4.70;3.17;;;13.80;99.90;;;;;;5065929;28;20426;-81
2021/05/09 00:43:39;;;;;;;4.00;3.00;;;13.80;99.90;;;;;;5057821;28;20478;-81
2021/05/09 00:46:08;;;;;;;5.07;3.77;;;13.80;99.90;;;;;;5061494;28;20460;-80
2021/05/09 00:48:36;;;;;;;6.30;3.40;;;13.80;99.90;;;;;;5069278;28;21039;-81
2021/05/09 00:51:03;;;;;;;4.37;3.60;;;13.80;99.90;;;;;;5056136;28;20427;-81
2021/05/09 00:53:30;;;;;;;3.53;3.23;;;13.80;99.90;;;;;;5072362;28;20480;-82
2021/05/09 00:55:58;;;;;;;3.97;3.57;;;13.80;99.90;;;;;;5074044;28;20418;-82
2021/05/09 00:58:28;;;;;;;4.90;3.20;;;13.70;99.90;;;;;;5073559;28;20431;-82
2021/05/09 01:00:54;;;;;;;4.67;3.07;;;13.70;99.90;;;;;;5075053;28;20423;-82
2021/05/09 01:03:27;;;;;;;4.70;3.73;;;13.70;99.90;;;;;;5066693;28;20484;-81
2021/05/09 01:05:55;;;;;;;5.17;3.30;;;13.70;99.90;;;;;;5055377;28;20441;-82
2021/05/09 01:08:22;;;;;;;5.20;3.33;;;13.70;99.90;;;;;;5059424;28;20426;-81
2021/05/09 01:10:50;;;;;;;6.50;3.60;;;13.70;99.90;;;;;;5075287;28;20790;-81
2021/05/09 01:13:16;;;;;;;4.03;3.63;;;13.70;99.90;;;;;;5071346;28;20486;-81
2021/05/09 01:15:44;;;;;;;3.57;3.27;;;13.60;99.90;;;;;;5074390;28;20428;-81
2021/05/09 01:18:10;;;;;;;5.53;3.27;;;13.60;99.90;;;;;;5074884;28;20510;-82
2021/05/09 01:20:37;;;;;;;6.93;3.57;;;13.60;99.90;;;;;;5069814;28;20612;-82
2021/05/09 01:23:06;;;;;;;4.13;3.40;;;13.60;99.90;;;;;;5062771;28;20504;-81
2021/05/09 01:25:33;;;;;;;3.33;3.03;;;13.60;99.90;;;;;;5074564;28;20889;-81
2021/05/09 01:28:02;;;;;;;3.37;2.90;;;13.60;99.90;;;;;;5073985;28;20438;-81
2021/05/09 01:30:28;;;;;;;4.07;3.67;;;13.50;99.90;;;;;;5073001;28;20431;-82
2021/05/09 01:32:57;;;;;;;4.70;3.50;;;13.60;99.90;;;;;;5071251;28;20474;-82
2021/05/09 01:35:23;;;;;;;3.87;3.57;;;13.50;99.90;;;;;;5061888;28;20429;-81
2021/05/09 01:37:49;;;;;;;3.77;3.43;;;13.50;99.90;;;;;;5059853;28;20525;-81
2021/05/09 01:40:18;;;;;;;3.93;3.20;;;13.50;99.90;;;;;;5068821;28;20525;-82
2021/05/09 01:42:44;;;;;;;3.60;3.20;;;13.50;99.90;;;;;;5038984;28;20505;-82
2021/05/09 01:45:14;;;;;;;3.80;3.50;;;13.50;99.90;;;;;;5073340;28;20946;-82
2021/05/09 01:47:41;;;;;;;4.77;3.30;;;13.40;99.90;;;;;;5073795;28;20439;-81
2021/05/09 01:50:12;;;;;;;3.60;3.30;;;13.50;99.90;;;;;;5074428;28;20438;-81
2021/05/09 01:52:39;;;;;;;5.13;2.80;;;13.50;99.90;;;;;;5071522;28;20791;-81
2021/05/09 01:55:18;;;;;;;3.83;3.50;;;13.50;99.90;;;;;;5054271;28;20467;-82
2021/05/09 01:57:49;;;;;;;5.03;3.10;;;13.50;99.90;;;;;;5066138;28;20422;-81
2021/05/09 02:00:26;;;;;;;3.13;2.90;;;13.50;99.90;;;;;;5072928;28;20755;-80
2021/05/09 02:03:05;;;;;;;3.23;2.93;;;13.50;99.90;;;;;;5054320;28;20444;-81
2021/05/09 02:06:00;;;;;;;3.63;3.33;;;13.40;99.90;;;;;;5129005;27;20296;-72
2021/05/09 02:08:27;;;;;;;3.80;3.03;;;13.50;99.90;;;;;;5109988;28;20427;-72
2021/05/09 02:10:58;;;;;;;3.80;3.10;;;13.40;99.90;;;;;;5055165;28;20512;-72
2021/05/09 02:13:26;;;;;;;5.20;2.97;;;13.40;99.90;;;;;;5088861;28;20448;-74
2021/05/09 02:16:02;;;;;;;3.27;3.07;;;13.40;99.90;;;;;;5059436;28;20429;-74
2021/05/09 02:18:28;;;;;;;3.83;2.77;;;13.40;99.90;;;;;;5072283;28;20444;-74
2021/05/09 02:20:54;;;;;;;6.00;3.23;;;13.50;99.90;;;;;;5068094;28;20429;-74
2021/05/09 02:23:21;;;;;;;3.70;3.40;;;13.50;99.90;;;;;;5068878;28;20434;-74
2021/05/09 02:25:47;;;;;;;3.20;2.83;;;13.50;99.90;;;;;;5051396;28;20495;-74
2021/05/09 02:28:15;;;;;;;3.90;2.80;;;13.50;99.90;;;;;;5086578;28;20429;-74
2021/05/09 02:30:42;;;;;;;4.07;3.00;;;13.50;99.90;;;;;;5055047;28;20530;-74
2021/05/09 02:33:12;;;;;;;2.83;2.63;;;13.40;99.90;;;;;;5070195;28;20434;-74
2021/05/09 02:35:40;;;;;;;2.73;2.53;;;13.40;99.90;;;;;;5055048;28;20421;-74
2021/05/09 02:38:06;;;;;;;4.10;2.97;;;13.50;99.90;;;;;;5062454;28;20445;-74
2021/05/09 02:40:33;;;;;;;3.60;2.87;;;13.50;99.90;;;;;;5060445;28;20449;-75
2021/05/09 02:42:59;;;;;;;3.40;2.60;;;13.40;99.90;;;;;;5066605;28;20432;-74
2021/05/09 02:45:25;;;;;;;3.30;3.00;;;13.40;99.90;;;;;;5071175;28;20954;-74
2021/05/09 02:47:54;;;;;;;2.90;2.70;;;13.40;99.90;;;;;;5082544;28;20429;-74
2021/05/09 02:50:21;;;;;;;3.43;2.40;;;13.40;99.90;;;;;;5071952;28;20529;-74
2021/05/09 02:52:48;;;;;;;3.80;2.80;;;13.40;99.90;;;;;;5053902;28;20425;-75
2021/05/09 02:55:15;;;;;;;2.83;2.63;;;13.40;99.90;;;;;;5069563;28;20918;-74
2021/05/09 02:57:45;;;;;;;3.10;2.80;;;13.40;99.90;;;;;;5069576;28;20409;-75
2021/05/09 03:00:12;;;;;;;3.40;3.10;;;13.50;99.90;;;;;;5069229;28;20805;-74
2021/05/09 03:02:40;;;;;;;3.67;2.50;;;13.40;99.90;;;;;;5052739;28;20489;-74
2021/05/09 03:05:11;;;;;;;3.77;2.93;;;13.30;99.90;;;;;;5080335;28;20491;-74
2021/05/09 03:07:39;;;;;;;3.37;3.00;;;13.30;99.90;;;;;;5086594;28;20452;-74
2021/05/09 03:10:08;;;;;;;3.50;3.20;;;13.30;99.90;;;;;;5086439;28;20456;-74
2021/05/09 03:12:34;;;;;;;3.47;3.03;;;13.30;99.90;;;;;;5085431;28;20519;-74
2021/05/09 03:15:03;;;;;;;2.93;2.70;;;13.40;99.90;;;;;;5064503;28;20433;-74
2021/05/09 03:17:31;;;;;;;5.67;2.80;;;13.40;99.90;;;;;;5051025;28;20461;-74
2021/05/09 03:19:57;;;;;;;3.60;2.60;;;13.30;99.90;;;;;;5059979;28;20459;-74
2021/05/09 03:22:23;;;;;;;2.80;2.60;;;13.40;99.90;;;;;;5056231;28;20419;-75
2021/05/09 03:24:49;;;;;;;3.40;2.80;;;13.40;99.90;;;;;;5074450;28;20477;-75
2021/05/09 03:27:18;;;;;;;2.60;2.40;;;13.40;99.90;;;;;;5067972;28;20448;-74
2021/05/09 03:29:46;;;;;;;2.50;2.30;;;13.40;99.90;;;;;;5055034;28;20499;-75
2021/05/09 03:32:12;;;;;;;3.17;2.47;;;13.40;99.90;;;;;;5071061;28;20925;-73
2021/05/09 03:34:38;;;;;;;4.17;2.80;;;13.40;99.90;;;;;;5073651;28;20419;-75
2021/05/09 03:37:04;;;;;;;3.97;3.00;;;13.30;99.90;;;;;;5073671;28;20936;-74
2021/05/09 03:39:30;;;;;;;3.50;2.70;;;13.40;99.90;;;;;;5073511;28;20442;-74
2021/05/09 03:41:58;;;;;;;3.03;2.83;;;13.50;99.90;;;;;;5069192;28;20487;-74
2021/05/09 03:44:27;;;;;;;3.03;2.73;;;13.50;99.90;;;;;;5073375;28;20472;-74
2021/05/09 03:46:56;;;;;;;4.87;3.43;;;13.50;99.90;;;;;;5072553;28;20438;-74
2021/05/09 03:49:22;;;;;;;2.90;2.60;;;13.60;99.90;;;;;;5074473;28;20450;-75
2021/05/09 03:51:48;;;;;;;4.33;2.67;;;13.60;99.90;;;;;;5067622;28;21042;-75
2021/05/09 03:54:14;;;;;;;6.03;2.70;;;13.60;99.90;;;;;;5067851;28;20534;-75
2021/05/09 03:56:40;;;;;;;3.60;2.40;;;13.60;99.90;;;;;;5073822;28;20432;-74
2021/05/09 03:59:06;;;;;;;2.80;2.53;;;13.60;99.90;;;;;;5067370;28;20534;-75
2021/05/09 04:01:32;;;;;;;3.33;3.00;;;13.60;99.90;;;;;;5061170;28;20462;-75
2021/05/09 04:03:58;;;;;;;4.23;2.83;;;13.60;99.90;;;;;;5055218;28;21363;-74
2021/05/09 04:06:24;;;;;;;2.87;2.63;;;13.60;99.90;;;;;;5072852;28;20525;-74
2021/05/09 04:08:50;;;;;;;3.60;2.90;;;13.60;99.90;;;;;;5059878;28;20532;-75
2021/05/09 04:11:17;;;;;;;3.90;2.93;;;13.70;99.90;;;;;;5027312;28;20425;-75
2021/05/09 04:13:50;;;;;;;2.80;2.60;;;13.60;99.90;;;;;;5072695;28;20487;-74
2021/05/09 04:16:16;;;;;;;2.90;2.60;;;13.60;99.90;;;;;;5058808;28;20532;-75
2021/05/09 04:18:45;;;;;;;3.00;2.70;;;13.60;99.90;;;;;;5054989;28;20419;-74
2021/05/09 04:21:11;;;;;;;4.27;2.60;;;13.50;99.90;;;;;;5057508;28;20419;-75
2021/05/09 04:23:37;;;;;;;5.17;2.80;;;13.60;99.90;;;;;;5073108;28;20427;-74
2021/05/09 04:26:03;;;;;;;2.80;2.60;;;13.60;99.90;;;;;;5073523;28;20429;-75
2021/05/09 04:28:30;;;;;;;3.63;2.53;;;13.60;99.90;;;;;;5070910;28;20552;-74
2021/05/09 04:30:56;;;;;;;3.50;3.20;;;13.60;99.90;;;;;;5068360;28;20951;-74
2021/05/09 04:33:26;;;;;;;2.77;2.57;;;13.60;99.90;;;;;;5053498;28;20435;-75
2021/05/09 04:35:53;;;;;;;2.80;2.40;;;13.60;99.90;;;;;;5070348;28;20819;-75
2021/05/09 04:38:19;;;;;;;3.27;2.63;;;13.70;99.90;;;;;;5073319;28;20464;-74
2021/05/09 04:40:46;;;;;;;3.70;2.50;;;13.70;99.90;;;;;;5060912;28;20529;-75
2021/05/09 04:43:16;;;;;;;2.63;2.10;;;13.80;99.90;;;;;;5063893;28;20587;-74
2021/05/09 04:46:00;;;;;;;4.43;2.70;;;13.80;99.90;;;;;;5072291;28;21056;-74
2021/05/09 04:48:26;;;;;;;2.93;2.67;;;13.90;99.90;;;;;;5066031;28;20466;-75
2021/05/09 04:50:52;;;;;;;3.90;3.10;;;13.90;99.90;;;;;;5063807;28;20541;-72
2021/05/09 04:53:30;;;;;;;3.33;2.60;;;14.00;99.90;;;;;;5053655;28;20502;-75
2021/05/09 04:56:06;;;;;;;3.13;2.80;;;14.00;99.90;;;;;;5055278;28;20519;-74
2021/05/09 04:58:35;;;;;;;2.90;2.70;;;14.10;99.90;;;;;;5069009;28;20430;-75
2021/05/09 05:01:05;;;;;;;4.33;2.57;;;14.20;99.90;;;;;;5045665;28;20465;-75
2021/05/09 05:03:32;;;;;;;2.70;2.50;;;14.30;99.90;;;;;;5065908;28;20543;-75
2021/05/09 05:05:58;;;;;;;2.50;2.30;;;14.30;99.90;;;;;;5065010;28;20595;-75
2021/05/09 05:08:25;;;;;;;6.80;2.77;;;14.40;99.90;;;;;;5032905;28;20445;-75
2021/05/09 05:10:51;;;;;;;3.10;2.70;;;14.50;99.90;;;;;;5045181;28;20821;-75
2021/05/09 05:13:28;;;;;;;2.90;2.70;;;14.50;99.90;;;;;;5036473;28;20428;-75
2021/05/09 05:15:56;;;;;;;3.13;2.43;;;14.60;99.90;;;;;;5061388;28;20459;-75
2021/05/09 05:18:24;;;;;;;2.57;2.37;;;14.70;99.90;;;;;;5051238;28;20818;-74
2021/05/09 05:20:55;;;;;;;3.50;3.20;;;14.80;99.90;;;;;;5061021;28;20529;-75
2021/05/09 05:23:24;;;;;;;2.67;2.47;;;14.80;99.90;;;;;;5052072;28;20566;-75
2021/05/09 05:25:53;;;;;;;2.50;2.30;;;14.80;99.90;;;;;;5049501;28;20508;-75
2021/05/09 05:28:20;;;;;;;3.23;2.40;;;14.80;99.90;;;;;;5054688;28;20187;-75
2021/05/09 05:30:47;;;;;;;6.97;3.23;;;14.80;99.90;;;;;;5027662;28;20891;-74
2021/05/09 05:33:33;;;;;;;3.13;2.77;;;14.90;99.90;;;;;;5068346;28;20429;-75
2021/05/09 05:36:00;;;;;;;2.50;2.30;;;14.90;99.90;;;;;;5064228;28;20513;-74
2021/05/09 05:38:27;;;;;;;3.13;2.70;;;14.80;99.90;;;;;;5035341;28;20432;-74
2021/05/09 05:40:55;;;;;;;2.70;2.47;;;14.90;99.90;;;;;;5032983;28;20455;-74
2021/05/09 05:43:28;;;;;;;2.33;2.20;;;14.90;99.90;;;;;;5064953;28;20443;-74
2021/05/09 05:45:56;;;;;;;3.43;3.00;;;14.90;99.90;;;;;;5046936;28;20986;-74
2021/05/09 05:48:25;;;;;;;2.70;2.50;;;15.00;99.90;;;;;;5035955;28;20468;-74
2021/05/09 05:50:54;;;;;;;3.43;3.10;;;15.00;99.90;;;;;;5040667;28;20463;-73
2021/05/09 05:53:22;;;;;;;4.17;2.90;;;15.00;99.90;;;;;;5051992;28;20467;-76
2021/05/09 05:55:52;;;;;;;5.90;2.80;;;15.00;99.90;;;;;;5040476;28;20431;-75
2021/05/09 05:58:18;;;;;;;3.07;2.87;;;15.10;99.90;;;;;;5049890;28;20481;-75
2021/05/09 06:00:45;;;;;;;3.27;2.97;;;15.20;99.90;;;;;;5066994;28;20990;-75
2021/05/09 06:03:11;;;;;;;2.90;2.60;;;15.30;99.90;;;;;;5047628;28;20443;-74
2021/05/09 06:05:43;;;;;;;3.10;2.00;;;15.40;99.90;;;;;;5051176;28;20481;-74
2021/05/09 06:08:11;;;;;;;2.97;2.67;;;15.40;99.90;;;;;;5024826;28;20469;-74
2021/05/09 06:10:37;;;;;;;3.43;2.47;;;15.50;99.90;;;;;;4996976;28;21035;-74
2021/05/09 06:13:06;;;;;;;3.00;2.80;;;15.60;99.90;;;;;;5037804;28;20442;-74
2021/05/09 06:15:32;;;;;;;3.50;3.03;;;15.70;99.90;;;;;;4996562;28;20447;-75
2021/05/09 06:17:58;;;;;;;3.20;2.90;;;15.80;99.90;;;;;;5029163;28;20443;-74
2021/05/09 06:20:26;;;;;;;2.87;2.67;;;15.90;99.90;;;;;;5007991;28;20446;-75
2021/05/09 06:22:57;;;;;;;2.97;2.77;;;16.00;99.90;;;;;;4999730;28;20442;-74
2021/05/09 06:25:23;;;;;;;3.83;2.40;;;16.10;99.90;;;;;;5015319;28;21161;-75
2021/05/09 06:27:49;;;;;;;2.83;2.63;;;16.20;99.90;;;;;;5031359;28;20438;-76
2021/05/09 06:30:17;;;;;;;3.30;2.90;;;16.30;99.90;;;;;;5044817;28;20442;-76
2021/05/09 06:32:43;;;;;;;4.30;3.03;;;16.50;99.90;;;;;;5043409;28;20436;-76
2021/05/09 06:35:10;;;;;;;3.47;3.20;;;16.70;99.90;;;;;;5020132;28;20485;-76
2021/05/09 06:37:36;;;;;;;3.70;3.40;;;16.80;99.90;;;;;;5014086;28;20435;-76
2021/05/09 06:40:04;;;;;;;3.97;3.20;;;16.90;99.90;;;;;;5022537;28;20446;-76
2021/05/09 06:42:30;;;;;;;3.60;3.30;;;17.00;99.90;;;;;;5022055;28;21027;-75
2021/05/09 06:45:00;;;;;;;3.60;3.30;;;17.00;99.90;;;;;;5016859;28;20557;-76
2021/05/09 06:47:26;;;;;;;4.00;3.00;;;17.10;99.90;;;;;;5016767;28;20530;-76
2021/05/09 06:49:52;;;;;;;3.77;3.47;;;17.20;99.90;;;;;;5005280;28;20491;-75
2021/05/09 06:52:21;;;;;;;3.83;3.30;;;17.30;99.90;;;;;;5048786;28;20548;-75
2021/05/09 06:54:47;;;;;;;3.50;3.20;;;17.50;99.90;;;;;;5024544;28;20483;-75
2021/05/09 06:57:13;;;;;;;2.97;2.77;;;17.60;99.90;;;;;;5046427;28;20432;-76
2021/05/09 06:59:40;;;;;;;4.10;3.67;;;17.70;99.90;;;;;;5033596;28;20458;-76
2021/05/09 07:02:06;;;;;;;3.80;3.50;;;17.90;99.90;;;;;;5018825;28;20439;-76
2021/05/09 07:04:32;;;;;;;5.67;3.40;;;17.90;99.90;;;;;;5064814;28;20488;-76
2021/05/09 07:07:01;;;;;;;4.00;3.60;;;18.00;99.90;;;;;;5072233;28;20835;-76
2021/05/09 07:09:27;;;;;;;3.03;2.80;;;18.00;99.60;;;;;;5061394;28;20451;-76
2021/05/09 07:11:53;;;;;;;3.53;3.33;;;18.10;99.50;;;;;;5050570;28;20431;-76
2021/05/09 07:14:22;;;;;;;3.77;3.57;;;18.20;99.40;;;;;;5066745;28;20435;-76
2021/05/09 07:16:49;;;;;;;3.70;3.40;;;18.30;99.40;;;;;;5051220;28;20439;-75
2021/05/09 07:19:18;;;;;;;3.53;3.33;;;18.40;98.70;;;;;;5064127;28;20471;-75
2021/05/09 07:21:50;;;;;;;3.33;3.13;;;18.40;98.60;;;;;;5060683;28;20433;-75
2021/05/09 07:24:17;;;;;;;3.83;3.63;;;18.60;98.30;;;;;;5051651;28;20469;-76
2021/05/09 07:26:43;;;;;;;5.93;4.53;;;18.50;98.00;;;;;;5054726;28;20440;-76
2021/05/09 07:29:11;;;;;;;3.60;3.30;;;18.60;98.50;;;;;;5051729;28;20450;-76
2021/05/09 07:31:42;;;;;;;3.70;3.40;;;18.70;98.40;;;;;;5057489;28;20438;-75
2021/05/09 07:34:13;;;;;;;3.83;3.53;;;18.80;97.30;;;;;;5050459;28;20436;-75
2021/05/09 07:36:41;;;;;;;3.03;2.73;;;18.90;97.20;;;;;;5043998;28;20536;-76
2021/05/09 07:39:11;;;;;;;3.50;3.23;;;19.00;97.00;;;;;;5071170;28;20455;-76
2021/05/09 07:41:42;;;;;;;7.43;3.70;;;19.10;96.80;;;;;;5054079;28;20453;-77
2021/05/09 07:44:10;;;;;;;4.03;3.60;;;19.20;96.60;;;;;;5056297;28;20462;-79
2021/05/09 07:46:42;;;;;;;3.87;3.67;;;19.40;96.40;;;;;;5059003;28;20524;-77
2021/05/09 07:49:13;;;;;;;3.40;3.20;;;19.40;96.30;;;;;;5070171;28;20477;-76
2021/05/09 07:51:42;;;;;;;3.93;3.63;;;19.50;96.00;;;;;;5062987;28;20449;-76
2021/05/09 07:54:09;;;;;;;4.50;4.10;;;19.50;95.60;;;;;;5065278;28;20451;-73
2021/05/09 07:56:41;;;;;;;3.80;3.50;;;19.60;96.00;;;;;;5059237;28;20425;-74
2021/05/09 07:59:07;;;;;;;4.20;3.80;;;19.70;95.80;;;;;;5066587;28;20494;-74
2021/05/09 08:01:33;;;;;;;3.87;3.53;;;19.70;95.80;;;;;;5065477;28;20437;-74
2021/05/09 08:04:00;;;;;;;3.87;3.57;;;19.90;95.60;;;;;;5067746;28;20972;-74
2021/05/09 08:06:27;;;;;;;4.57;4.27;;;20.00;95.70;;;;;;5070600;28;20994;-74
2021/05/09 08:08:53;;;;;;;4.87;4.53;;;20.00;95.00;;;;;;5055487;28;20453;-75
2021/05/09 08:11:20;;;;;;;5.00;4.57;;;20.10;95.50;;;;;;5072085;28;20457;-74
2021/05/09 08:13:48;;;;;;;5.13;4.73;;;20.20;95.00;;;;;;5061405;28;20461;-73
2021/05/09 08:16:14;;;;;;;5.57;5.07;;;20.30;94.90;;;;;;5060434;28;20421;-74
2021/05/09 08:18:43;;;;;;;4.67;4.27;;;20.40;94.40;;;;;;5038579;28;20875;-75
2021/05/09 08:21:09;;;;;;;4.47;4.17;;;20.40;94.80;;;;;;5067419;28;20498;-75
2021/05/09 08:23:38;;;;;;;4.77;4.47;;;20.60;94.50;;;;;;5063717;28;20426;-75
2021/05/09 08:26:08;;;;;;;3.53;3.23;;;20.70;94.70;;;;;;5052678;28;20524;-73
2021/05/09 08:28:35;;;;;;;4.30;4.03;;;20.80;94.50;;;;;;5071044;28;20433;-74
2021/05/09 08:31:06;;;;;;;5.40;4.47;;;21.00;94.00;;;;;;5073441;28;20798;-75
2021/05/09 08:33:31;;;;;;;7.20;4.17;;;21.10;94.00;;;;;;5068688;28;20904;-75
2021/05/09 08:36:00;;;;;;;4.13;3.93;;;21.40;93.90;;;;;;5072402;28;20429;-74
2021/05/09 08:38:26;;;;;;;6.03;5.53;;;21.60;93.60;;;;;;5068888;28;20453;-74
2021/05/09 08:40:57;;;;;;;4.97;4.50;;;21.80;93.10;;;;;;5067168;28;20442;-75
2021/05/09 08:43:26;;;;;;;5.90;4.70;;;22.00;93.20;;;;;;5060353;28;20426;-74
2021/05/09 08:45:53;;;;;;;5.30;5.00;;;22.20;92.10;;;;;;5071801;28;20469;-75
2021/05/09 08:48:22;;;;;;;4.97;4.67;;;22.40;92.90;;;;;;5072015;28;20447;-74
2021/05/09 08:50:52;;;;;;;5.27;4.97;;;22.50;91.40;;;;;;5061890;28;20462;-74
2021/05/09 08:53:21;;;;;;;4.97;4.47;;;22.50;91.10;;;;;;5072084;28;20815;-75
2021/05/09 08:55:52;;;;;;;4.60;4.30;;;22.40;91.60;;;;;;5066233;28;20426;-75
2021/05/09 08:58:19;;;;;;;4.40;4.00;;;22.40;91.30;;;;;;5070997;28;20518;-75
2021/05/09 09:00:45;;;;;;;4.57;4.27;;;22.20;91.50;;;;;;5054954;28;20963;-75
2021/05/09 09:03:14;;;;;;;4.33;4.10;;;22.30;91.60;;;;;;5072534;28;20426;-75
2021/05/09 09:05:45;;;;;;;5.57;5.07;;;22.50;91.30;;;;;;5064112;28;20512;-74
2021/05/09 09:08:14;;;;;;;4.80;4.40;;;22.80;90.90;;;;;;5067692;28;20488;-74
2021/05/09 09:10:43;;;;;;;4.20;3.90;;;22.90;90.50;;;;;;5072176;28;20432;-75
2021/05/09 09:13:22;;;;;;;4.90;4.60;;;23.20;90.40;;;;;;5065093;28;20440;-74
2021/05/09 09:15:49;;;;;;;5.17;4.87;;;23.30;90.50;;;;;;5066886;28;20927;-74
2021/05/09 09:18:41;;;;;;;5.10;4.70;;;23.60;89.20;;;;;;5063185;28;20958;-75
2021/05/09 09:21:30;;;;;;;5.67;5.17;;;23.80;88.90;;;;;;5070929;28;20851;-75
2021/05/09 09:24:06;;;;;;;4.90;4.60;;;23.70;87.30;;;;;;5060925;28;20432;-79
2021/05/09 09:26:41;;;;;;;4.83;4.53;;;23.70;87.50;;;;;;5040257;28;20445;-74
2021/05/09 09:29:28;;;;;;;4.83;4.43;;;23.60;88.60;;;;;;5066842;28;20452;-75
2021/05/09 09:32:08;;;;;;;4.60;4.40;;;23.80;89.00;;;;;;5069818;28;20430;-76
2021/05/09 09:34:39;;;;;;;5.30;4.83;;;24.10;86.70;;;;;;5067648;28;20826;-77
2021/05/09 09:37:08;;;;;;;4.57;4.27;;;24.20;87.10;;;;;;5073513;28;20423;-76
2021/05/09 09:39:55;;;;;;;5.30;5.00;;;24.50;85.10;;;;;;5068697;28;20452;-77
2021/05/09 09:42:44;;;;;;;4.93;4.63;;;24.50;83.40;;;;;;5069212;28;20938;-77
2021/05/09 09:45:24;;;;;;;5.80;5.50;;;24.40;84.20;;;;;;5055695;28;20464;-76
2021/05/09 09:48:02;;;;;;;5.30;4.90;;;24.30;83.80;;;;;;5055227;28;20481;-75
2021/05/09 09:50:40;;;;;;;7.43;5.00;;;24.40;85.30;;;;;;5065003;28;20902;-76
2021/05/09 09:53:31;;;;;;;6.13;5.63;;;24.50;83.70;;;;;;5076569;22;20481;-73
2021/05/09 09:56:17;;;;;;;5.60;5.00;;;24.50;83.10;;;;;;5032033;28;20435;-72
2021/05/09 09:59:02;;;;;;;5.43;5.13;;;24.70;85.00;;;;;;5022151;22;20502;-73
2021/05/09 10:01:30;;;;;;;5.63;5.10;;;24.80;83.10;;;;;;5040110;28;20511;-77
2021/05/09 10:03:57;;;;;;;5.60;5.30;;;24.80;81.30;;;;;;5028151;23;20479;-83
2021/05/09 10:06:29;;;;;;;5.43;4.70;;;24.70;81.50;;;;;;5027040;28;20444;-83
2021/05/09 10:08:57;;;;;;;5.60;5.20;;;24.50;81.00;;;;;;5028246;28;20442;-84
2021/05/09 10:11:28;;;;;;;5.43;4.83;;;24.40;81.50;;;;;;5023505;28;20759;-83
2021/05/09 10:13:55;;;;;;;5.80;5.17;;;24.40;82.40;;;;;;5032417;28;20430;-84
2021/05/09 10:16:29;;;;;;;5.83;5.40;;;24.40;81.80;;;;;;5030130;28;20515;-82
2021/05/09 10:19:00;;;;;;;6.03;5.57;;;24.60;81.70;;;;;;5027709;28;20499;-84
2021/05/09 10:21:31;;;;;;;4.27;4.07;;;24.60;80.80;;;;;;5030877;28;20534;-84
2021/05/09 10:24:23;;;;;;;5.80;5.30;;;24.70;80.70;;;;;;5031847;28;20504;-84
2021/05/09 10:27:09;;;;;;;5.53;5.20;;;24.90;80.60;;;;;;5032203;28;20435;-85
2021/05/09 10:29:41;;;;;;;5.53;5.17;;;25.40;79.80;;;;;;5022852;28;20458;-84
2021/05/09 10:32:18;;;;;;;5.73;5.23;;;25.60;77.30;;;;;;5025426;28;20431;-82
2021/05/09 10:34:58;;;;;;;5.07;4.67;;;25.80;75.90;;;;;;5036151;28;20453;-84
2021/05/09 10:37:40;;;;;;;4.90;4.60;;;25.70;76.70;;;;;;5033153;28;20517;-85
2021/05/09 10:40:24;;;;;;;4.63;4.23;;;25.90;75.80;;;;;;5029658;28;20443;-85
2021/05/09 10:43:03;;;;;;;5.50;5.17;;;26.30;76.90;;;;;;5026237;28;20482;-85
2021/05/09 10:45:35;;;;;;;6.30;5.90;;;26.70;74.30;;;;;;5034222;28;20470;-84
2021/05/09 10:48:13;;;;;;;6.00;5.60;;;26.90;75.30;;;;;;5028760;28;20469;-84
2021/05/09 10:50:46;;;;;;;6.87;5.10;;;27.10;71.80;;;;;;5024894;28;20865;-84
2021/05/09 10:53:33;;;;;;;5.33;4.90;;;27.20;70.20;;;;;;5034728;28;20466;-84
2021/05/09 10:56:01;;;;;;;6.73;6.20;;;27.40;68.80;;;;;;5026607;28;20796;-85
2021/05/09 10:58:49;;;;;;;5.70;5.40;;;27.40;69.30;;;;;;5034509;28;20450;-86
2021/05/09 11:01:23;;;;;;;6.00;5.50;;;27.50;67.50;;;;;;5018886;28;20905;-86
2021/05/09 11:04:03;;;;;;;5.73;5.33;;;27.80;68.80;;;;;;5022483;28;20475;-86
2021/05/09 11:06:31;;;;;;;5.40;4.90;;;27.80;64.50;;;;;;5028635;28;20446;-86
2021/05/09 11:09:05;;;;;;;5.47;5.10;;;27.80;64.10;;;;;;5010386;28;20945;-83
2021/05/09 11:11:33;;;;;;;5.33;4.93;;;27.80;65.60;;;;;;5036686;28;20192;-86
2021/05/09 11:13:59;;;;;;;5.03;4.73;;;27.80;65.30;;;;;;5012051;28;20793;-87
2021/05/09 11:16:28;;;;;;;6.23;5.73;;;27.80;62.60;;;;;;5034138;28;20583;-88
2021/05/09 11:19:02;;;;;;;4.83;4.53;;;27.70;63.90;;;;;;5015115;28;20435;-84
2021/05/09 11:21:37;;;;;;;5.87;5.57;;;27.50;62.10;;;;;;5007243;28;20430;-85
2021/05/09 11:24:07;;;;;;;5.30;4.90;;;27.30;62.10;;;;;;5029284;28;20444;-84
2021/05/09 11:26:43;;;;;;;5.97;5.40;;;27.20;64.20;;;;;;5029046;28;20828;-83
2021/05/09 11:29:16;;;;;;;5.80;5.47;;;27.20;63.80;;;;;;5013003;28;20512;-84
2021/05/09 11:31:47;;;;;;;5.53;5.03;;;27.40;67.00;;;;;;5007257;28;20537;-83
2021/05/09 11:34:16;;;;;;;4.90;4.60;;;27.70;64.70;;;;;;5032848;28;20434;-84
2021/05/09 11:36:48;;;;;;;4.93;4.53;;;28.00;64.00;;;;;;5034006;28;20830;-83
2021/05/09 11:39:35;;;;;;;6.30;5.90;;;28.20;62.10;;;;;;5024842;28;20795;-85
2021/05/09 11:42:18;;;;;;;5.80;5.40;;;28.60;62.10;;;;;;5036082;28;20524;-84
2021/05/09 11:44:52;;;;;;;6.00;5.60;;;28.70;60.10;;;;;;5035421;28;20986;-85
2021/05/09 11:47:30;;;;;;;6.70;6.20;;;28.90;59.30;;;;;;5016536;28;20829;-85
2021/05/09 11:50:08;;;;;;;7.57;7.17;;;29.30;59.30;;;;;;4997495;28;20535;-85
2021/05/09 11:52:36;;;;;;;5.70;5.40;;;29.50;57.80;;;;;;4999511;28;20428;-82
2021/05/09 11:55:09;;;;;;;6.23;5.73;;;29.70;58.80;;;;;;4982633;28;20424;-86
2021/05/09 11:57:35;;;;;;;5.40;5.10;;;30.00;58.10;;;;;;5006441;28;20428;-91
2021/05/09 12:00:08;;;;;;;6.33;6.03;;;30.20;56.00;;;;;;5031410;28;20493;-90
2021/05/09 12:02:36;;;;;;;6.43;5.93;;;30.00;54.90;;;;;;5035072;28;20466;-87
2021/05/09 12:05:14;;;;;;;5.20;4.90;;;29.90;56.50;;;;;;5034718;28;20515;-88
2021/05/09 12:07:51;;;;;;;5.50;5.10;;;30.10;58.20;;;;;;5013055;28;20434;-88
2021/05/09 12:10:26;;;;;;;7.50;6.20;;;30.30;56.60;;;;;;5016997;28;20444;-87
2021/05/09 12:12:57;;;;;;;10.30;6.47;;;30.40;55.20;;;;;;5022011;28;20428;-88
2021/05/09 12:15:29;;;;;;;5.83;5.23;;;30.40;54.90;;;;;;5027386;28;20427;-88
2021/05/09 12:17:57;;;;;;;5.97;5.40;;;30.30;54.90;;;;;;5020847;28;20463;-85
2021/05/09 12:20:27;;;;;;;5.90;5.50;;;30.50;54.20;;;;;;5034855;28;20427;-89
2021/05/09 12:23:00;;;;;;;5.80;5.50;;;30.60;54.80;;;;;;4982240;28;20432;-86
2021/05/09 12:25:38;;;;;;;5.70;5.13;;;30.70;54.30;;;;;;5029289;28;20498;-91
2021/05/09 12:28:08;;;;;;;6.07;5.67;;;31.00;53.50;;;;;;5024181;28;20482;-86
2021/05/09 12:30:34;;;;;;;5.77;5.40;;;31.10;53.50;;;;;;5016404;28;20428;-85
2021/05/09 12:33:01;;;;;;;5.40;5.10;;;31.00;52.50;;;;;;5016142;28;20507;-82
2021/05/09 12:35:27;;;;;;;5.67;5.30;;;31.30;52.50;;;;;;5018693;28;20475;-86
2021/05/09 12:37:53;;;;;;;5.70;5.20;;;31.20;52.20;;;;;;5007212;28;20785;-86
2021/05/09 12:40:22;;;;;;;5.67;5.37;;;31.30;52.90;;;;;;5023979;28;20436;-86
2021/05/09 12:42:59;;;;;;;5.80;5.30;;;31.40;52.20;;;;;;5017121;28;20824;-88
2021/05/09 12:45:29;;;;;;;5.33;5.03;;;31.40;50.00;;;;;;5015857;28;20478;-83
2021/05/09 12:48:17;;;;;;;5.47;5.07;;;31.10;49.20;;;;;;5020525;28;20778;-85
2021/05/09 12:50:53;;;;;;;5.83;5.20;;;30.80;50.40;;;;;;5017046;28;20413;-88
2021/05/09 12:53:43;;;;;;;10.47;5.67;;;30.70;51.40;;;;;;5020708;28;20435;-88
2021/05/09 12:56:25;;;;;;;5.60;5.20;;;30.40;50.10;;;;;;5009601;28;20434;-89
2021/05/09 12:58:59;;;;;;;6.00;5.60;;;30.40;49.90;;;;;;5035652;28;20491;-89
2021/05/09 13:01:29;;;;;;;5.23;4.93;;;30.60;50.80;;;;;;5016649;28;20425;-87
2021/05/09 13:03:55;;;;;;;5.27;4.77;;;30.90;51.20;;;;;;5013443;28;20486;-85